Time;durP1;ratioP1;P1;durP2;ratioP2;P2;SDS_P1;SDS_P2;PMS_P1;PMS_P2;Temp;Humidity;BMP_temperature;BMP_pressure;BME280_temperature;BME280_humidity;BME280_pressure;Samples;Min_cycle;Max_cycle;Signal;HPM_P1;HPM_P2
2023/08/21 00:01:48;;;;;;;;;1.00;1.00;;;;;;;;5054315;28;45704;-67
2023/08/21 00:04:13;;;;;;;;;2.25;1.00;;;;;;;;5054500;28;45711;-66
2023/08/21 00:06:38;;;;;;;;;1.00;1.00;;;;;;;;5055067;28;45387;-67
2023/08/21 00:09:04;;;;;;;;;4.25;1.25;;;;;;;;5035863;28;45416;-66
2023/08/21 00:11:29;;;;;;;;;0.50;0.25;;;;;;;;5054588;28;46550;-66
2023/08/21 00:13:54;;;;;;;;;1.00;1.00;;;;;;;;5054195;28;45381;-65
2023/08/21 00:16:19;;;;;;;;;1.75;1.00;;;;;;;;5049447;28;45452;-67
2023/08/21 00:18:45;;;;;;;;;2.25;1.00;;;;;;;;5047277;28;45608;-67
2023/08/21 00:21:10;;;;;;;;;0.75;0.00;;;;;;;;5053991;28;45394;-68
2023/08/21 00:23:35;;;;;;;;;1.00;1.00;;;;;;;;5035683;28;46094;-66
2023/08/21 00:26:00;;;;;;;;;1.00;1.00;;;;;;;;5036233;28;45578;-68
2023/08/21 00:28:26;;;;;;;;;1.00;1.00;;;;;;;;5054202;28;45428;-68
2023/08/21 00:30:51;;;;;;;;;0.00;0.00;;;;;;;;5053122;28;46366;-67
2023/08/21 00:33:16;;;;;;;;;0.25;0.25;;;;;;;;5048596;28;45382;-67
2023/08/21 00:35:42;;;;;;;;;0.75;0.75;;;;;;;;5054962;28;45776;-67
2023/08/21 00:38:07;;;;;;;;;1.00;1.00;;;;;;;;5054206;28;45448;-66
2023/08/21 00:40:32;;;;;;;;;1.50;0.00;;;;;;;;5048742;28;45610;-65
2023/08/21 00:42:58;;;;;;;;;0.75;0.00;;;;;;;;5054387;28;45688;-66
2023/08/21 00:45:23;;;;;;;;;2.00;1.00;;;;;;;;5054377;28;45628;-67
2023/08/21 00:47:48;;;;;;;;;1.75;1.00;;;;;;;;5053890;28;45323;-67
2023/08/21 00:50:15;;;;;;;;;1.50;1.00;;;;;;;;5054439;28;45968;-66
2023/08/21 00:52:41;;;;;;;;;0.00;0.00;;;;;;;;5054088;28;45691;-65
2023/08/21 00:55:08;;;;;;;;;1.75;1.00;;;;;;;;5054400;28;45748;-66
2023/08/21 00:57:33;;;;;;;;;1.00;1.00;;;;;;;;5053324;28;45837;-66
2023/08/21 01:00:00;;;;;;;;;0.75;0.50;;;;;;;;5053821;28;46346;-66
2023/08/21 01:02:25;;;;;;;;;0.00;0.00;;;;;;;;5053161;28;45435;-65
2023/08/21 01:04:50;;;;;;;;;2.00;0.25;;;;;;;;5053987;28;45350;-68
2023/08/21 01:07:15;;;;;;;;;2.75;1.00;;;;;;;;5036020;28;45882;-66
2023/08/21 01:10:10;;;;;;;;;1.00;1.00;;;;;;;;5054146;28;45392;-67
2023/08/21 01:12:42;;;;;;;;;0.50;0.50;;;;;;;;5023476;28;45759;-66
2023/08/21 01:15:08;;;;;;;;;1.50;1.00;;;;;;;;5054113;28;45673;-68
2023/08/21 01:17:36;;;;;;;;;1.25;1.00;;;;;;;;5053223;28;45472;-66
2023/08/21 01:20:02;;;;;;;;;2.25;1.00;;;;;;;;5053136;28;45461;-67
2023/08/21 01:22:34;;;;;;;;;0.75;0.75;;;;;;;;5053714;28;45775;-65
2023/08/21 01:24:59;;;;;;;;;1.75;1.75;;;;;;;;5044368;28;45344;-66
2023/08/21 01:27:25;;;;;;;;;1.00;1.00;;;;;;;;5054005;28;45727;-66
2023/08/21 01:29:50;;;;;;;;;1.00;0.00;;;;;;;;5054148;28;46129;-66
2023/08/21 01:32:24;;;;;;;;;1.75;1.75;;;;;;;;5053628;28;45303;-66
2023/08/21 01:34:51;;;;;;;;;2.00;0.25;;;;;;;;5054112;28;45706;-66
2023/08/21 01:37:17;;;;;;;;;1.75;1.75;;;;;;;;5044721;28;45350;-65
2023/08/21 01:39:42;;;;;;;;;1.00;1.00;;;;;;;;5053685;28;45739;-67
2023/08/21 01:42:07;;;;;;;;;3.00;0.75;;;;;;;;5048571;28;45914;-66
2023/08/21 01:44:32;;;;;;;;;1.00;1.00;;;;;;;;5057550;28;45408;-67
2023/08/21 01:46:57;;;;;;;;;0.25;0.25;;;;;;;;5051952;28;45700;-66
2023/08/21 01:49:23;;;;;;;;;1.25;1.25;;;;;;;;5050539;28;46216;-66
2023/08/21 01:51:48;;;;;;;;;2.25;2.00;;;;;;;;5057617;28;45754;-66
2023/08/21 01:54:13;;;;;;;;;2.25;0.00;;;;;;;;5057381;28;45687;-67
2023/08/21 01:56:39;;;;;;;;;2.75;1.75;;;;;;;;5055778;28;45344;-68
2023/08/21 01:59:05;;;;;;;;;2.50;1.25;;;;;;;;5057067;28;45699;-65
2023/08/21 02:01:30;;;;;;;;;3.00;1.00;;;;;;;;5056867;28;45653;-66
2023/08/21 02:03:55;;;;;;;;;1.75;1.75;;;;;;;;5039328;28;45430;-66
2023/08/21 02:06:21;;;;;;;;;1.50;1.00;;;;;;;;5056666;28;45655;-65
2023/08/21 02:08:46;;;;;;;;;3.00;1.00;;;;;;;;5056580;28;45714;-67
2023/08/21 02:11:11;;;;;;;;;0.50;0.50;;;;;;;;5056172;28;45795;-65
2023/08/21 02:13:36;;;;;;;;;1.50;1.00;;;;;;;;5042403;28;45997;-67
2023/08/21 02:16:02;;;;;;;;;1.00;1.00;;;;;;;;5056777;28;45315;-65
2023/08/21 02:18:27;;;;;;;;;1.00;1.00;;;;;;;;5056330;28;45385;-66
2023/08/21 02:20:52;;;;;;;;;4.00;2.00;;;;;;;;5056395;28;46356;-65
2023/08/21 02:23:17;;;;;;;;;2.00;1.00;;;;;;;;5055913;28;45404;-65
2023/08/21 02:25:43;;;;;;;;;2.25;2.00;;;;;;;;5056931;28;45621;-66
2023/08/21 02:28:08;;;;;;;;;1.00;1.00;;;;;;;;5056517;28;45419;-66
2023/08/21 02:30:33;;;;;;;;;1.00;1.00;;;;;;;;5034700;28;45583;-66
2023/08/21 02:32:58;;;;;;;;;0.50;0.50;;;;;;;;5054234;28;45364;-66
2023/08/21 02:35:24;;;;;;;;;2.75;1.00;;;;;;;;5056713;28;45724;-66
2023/08/21 02:37:49;;;;;;;;;1.25;1.25;;;;;;;;5056120;28;46037;-66
2023/08/21 02:40:14;;;;;;;;;1.50;1.50;;;;;;;;5054353;28;45540;-66
2023/08/21 02:42:40;;;;;;;;;2.00;2.00;;;;;;;;5055331;28;45511;-65
2023/08/21 02:45:08;;;;;;;;;2.00;1.00;;;;;;;;5055746;28;45410;-66
2023/08/21 02:47:37;;;;;;;;;1.00;1.00;;;;;;;;5055590;28;45563;-65
2023/08/21 02:50:03;;;;;;;;;2.00;1.75;;;;;;;;5037657;28;45288;-66
2023/08/21 02:52:28;;;;;;;;;2.75;2.00;;;;;;;;5038007;28;45700;-65
2023/08/21 02:54:53;;;;;;;;;2.75;1.25;;;;;;;;5054790;28;45705;-65
2023/08/21 02:57:19;;;;;;;;;1.00;1.00;;;;;;;;5054986;28;45781;-65
2023/08/21 02:59:44;;;;;;;;;3.00;1.00;;;;;;;;5055556;28;45741;-66
2023/08/21 03:02:09;;;;;;;;;2.00;2.00;;;;;;;;5055086;28;45491;-66
2023/08/21 03:04:34;;;;;;;;;2.25;2.25;;;;;;;;5055200;28;45414;-66
2023/08/21 03:06:59;;;;;;;;;2.00;1.50;;;;;;;;5055388;28;45689;-66
2023/08/21 03:09:25;;;;;;;;;1.25;1.25;;;;;;;;5055838;28;45901;-66
2023/08/21 03:11:50;;;;;;;;;3.25;2.25;;;;;;;;5055898;28;45776;-65
2023/08/21 03:14:15;;;;;;;;;2.75;2.75;;;;;;;;5048589;28;45682;-65
2023/08/21 03:16:40;;;;;;;;;1.00;1.00;;;;;;;;5050123;28;45974;-65
2023/08/21 03:19:06;;;;;;;;;2.00;2.00;;;;;;;;5055448;28;45504;-66
2023/08/21 03:21:31;;;;;;;;;2.25;2.00;;;;;;;;5037852;28;45613;-65
2023/08/21 03:23:57;;;;;;;;;3.00;1.25;;;;;;;;5053003;28;45380;-65
2023/08/21 03:26:23;;;;;;;;;1.00;0.25;;;;;;;;5050679;28;46172;-65
2023/08/21 03:28:48;;;;;;;;;2.00;2.00;;;;;;;;5052679;28;45694;-66
2023/08/21 03:31:14;;;;;;;;;2.00;2.00;;;;;;;;5050759;28;45476;-69
2023/08/21 03:33:39;;;;;;;;;1.00;1.00;;;;;;;;5046978;28;45880;-70
2023/08/21 03:36:04;;;;;;;;;1.00;1.00;;;;;;;;5054999;28;45625;-70
2023/08/21 03:38:29;;;;;;;;;2.50;2.00;;;;;;;;5054488;28;45678;-70
2023/08/21 03:40:55;;;;;;;;;3.00;1.50;;;;;;;;5052326;28;45547;-70
2023/08/21 03:43:20;;;;;;;;;4.00;2.50;;;;;;;;5055095;28;45877;-72
2023/08/21 03:45:45;;;;;;;;;3.75;2.00;;;;;;;;5055002;28;46573;-70
2023/08/21 03:48:10;;;;;;;;;4.75;1.75;;;;;;;;5047839;28;45270;-70
2023/08/21 03:50:36;;;;;;;;;1.25;0.75;;;;;;;;5054635;28;45620;-69
2023/08/21 03:53:01;;;;;;;;;1.50;1.50;;;;;;;;5054801;28;45685;-70
2023/08/21 03:55:26;;;;;;;;;6.00;3.00;;;;;;;;5055035;28;46174;-70
2023/08/21 03:57:51;;;;;;;;;4.75;3.25;;;;;;;;5035813;28;45733;-71
2023/08/21 04:00:17;;;;;;;;;4.00;2.50;;;;;;;;5054536;28;45523;-71
2023/08/21 04:02:42;;;;;;;;;2.75;1.75;;;;;;;;5041004;28;46239;-69
2023/08/21 04:05:07;;;;;;;;;4.50;3.00;;;;;;;;5053354;28;45440;-69
2023/08/21 04:07:32;;;;;;;;;2.75;2.00;;;;;;;;5054113;28;45682;-71
2023/08/21 04:09:58;;;;;;;;;2.50;0.75;;;;;;;;5054360;28;45688;-70
2023/08/21 04:12:23;;;;;;;;;3.00;2.00;;;;;;;;5054716;28;45354;-71
2023/08/21 04:14:48;;;;;;;;;3.00;3.00;;;;;;;;5044810;28;45444;-70
2023/08/21 04:17:13;;;;;;;;;3.00;2.25;;;;;;;;5052284;28;45373;-70
2023/08/21 04:19:40;;;;;;;;;2.00;2.00;;;;;;;;5054456;28;45448;-70
2023/08/21 04:22:06;;;;;;;;;2.67;2.67;;;;;;;;5053945;28;45376;-72
2023/08/21 04:27:08;;;;;;;;;5.75;2.50;;;;;;;;5037576;25;45426;-81
2023/08/21 04:29:35;;;;;;;;;3.50;2.50;;;;;;;;5048429;28;45441;-80
2023/08/21 04:32:00;;;;;;;;;4.00;3.00;;;;;;;;5034609;28;45666;-80
2023/08/21 04:34:25;;;;;;;;;3.75;3.75;;;;;;;;5047833;28;46085;-80
2023/08/21 04:36:50;;;;;;;;;4.25;3.00;;;;;;;;5027984;28;45270;-82
2023/08/21 04:39:15;;;;;;;;;4.00;4.00;;;;;;;;5026638;28;45265;-81
2023/08/21 04:41:41;;;;;;;;;3.33;3.33;;;;;;;;5025255;28;46048;-81
2023/08/21 04:44:06;;;;;;;;;4.67;3.67;;;;;;;;5051092;28;45430;-82
2023/08/21 04:46:32;;;;;;;;;3.00;3.00;;;;;;;;5040610;28;45843;-81
2023/08/21 04:48:57;;;;;;;;;3.00;3.00;;;;;;;;5023136;28;45536;-81
2023/08/21 04:51:22;;;;;;;;;2.00;2.00;;;;;;;;5029093;28;46038;-80
2023/08/21 04:53:47;;;;;;;;;3.50;2.75;;;;;;;;5040962;28;46206;-80
2023/08/21 04:56:13;;;;;;;;;4.00;2.75;;;;;;;;5027104;28;45385;-81
2023/08/21 04:58:38;;;;;;;;;5.00;3.67;;;;;;;;5022126;28;45394;-81
2023/08/21 05:01:04;;;;;;;;;3.00;2.33;;;;;;;;5042725;28;45468;-81
2023/08/21 05:03:29;;;;;;;;;5.00;3.00;;;;;;;;5022533;28;48400;-79
2023/08/21 05:05:55;;;;;;;;;2.33;2.33;;;;;;;;5031902;28;45539;-80
2023/08/21 05:08:21;;;;;;;;;4.00;4.00;;;;;;;;5047359;28;45442;-81
2023/08/21 05:10:47;;;;;;;;;6.00;3.00;;;;;;;;5052019;28;45458;-82
2023/08/21 05:13:12;;;;;;;;;3.67;3.67;;;;;;;;5032055;28;47253;-79
2023/08/21 05:15:37;;;;;;;;;3.00;3.00;;;;;;;;5052542;28;45454;-80
2023/08/21 05:18:02;;;;;;;;;5.25;2.25;;;;;;;;5056545;28;45461;-82
2023/08/21 05:20:27;;;;;;;;;4.00;2.25;;;;;;;;5060140;28;45445;-80
2023/08/21 05:22:53;;;;;;;;;4.00;3.00;;;;;;;;5054734;28;45559;-80
2023/08/21 05:25:18;;;;;;;;;5.00;2.00;;;;;;;;5051860;27;45430;-80
2023/08/21 05:27:43;;;;;;;;;2.75;2.75;;;;;;;;5060134;28;45434;-81
2023/08/21 05:30:10;;;;;;;;;2.00;2.00;;;;;;;;5043670;28;47205;-81
2023/08/21 05:32:35;;;;;;;;;6.25;3.25;;;;;;;;5059939;28;46434;-81
2023/08/21 05:35:01;;;;;;;;;4.25;3.00;;;;;;;;5062234;28;45558;-80
2023/08/21 05:37:26;;;;;;;;;6.00;3.25;;;;;;;;5059248;28;45956;-79
2023/08/21 05:39:52;;;;;;;;;3.00;2.00;;;;;;;;5041401;28;46334;-80
2023/08/21 05:42:17;;;;;;;;;3.00;2.50;;;;;;;;5057904;28;45458;-78
2023/08/21 05:44:42;;;;;;;;;5.50;3.75;;;;;;;;5039357;28;45494;-81
2023/08/21 05:47:07;;;;;;;;;2.00;2.00;;;;;;;;5057005;28;45316;-81
2023/08/21 05:49:33;;;;;;;;;3.50;2.25;;;;;;;;5039608;28;47138;-79
2023/08/21 05:51:58;;;;;;;;;5.00;4.00;;;;;;;;5057396;28;45604;-81
2023/08/21 05:54:24;;;;;;;;;3.00;2.75;;;;;;;;5057359;28;45716;-80
2023/08/21 05:56:49;;;;;;;;;4.50;2.50;;;;;;;;5056161;28;46422;-81
2023/08/21 05:59:26;;;;;;;;;2.00;1.50;;;;;;;;5070708;28;46219;-79
2023/08/21 06:01:51;;;;;;;;;2.75;1.00;;;;;;;;5059799;28;45530;-81
2023/08/21 06:04:17;;;;;;;;;3.25;2.75;;;;;;;;5054801;27;45371;-81
2023/08/21 06:06:42;;;;;;;;;2.00;2.00;;;;;;;;5070710;27;45414;-81
2023/08/21 06:09:07;;;;;;;;;3.25;1.00;;;;;;;;5073816;27;45535;-81
2023/08/21 06:11:32;;;;;;;;;4.50;1.00;;;;;;;;5070859;27;45461;-81
2023/08/21 06:13:58;;;;;;;;;3.25;2.25;;;;;;;;5074721;27;45402;-80
2023/08/21 06:16:23;;;;;;;;;3.00;1.00;;;;;;;;5064701;28;45707;-83
2023/08/21 06:18:48;;;;;;;;;4.00;2.00;;;;;;;;5070291;28;45695;-81
2023/08/21 06:21:13;;;;;;;;;2.00;2.00;;;;;;;;5067093;28;46675;-80
2023/08/21 06:23:38;;;;;;;;;3.00;1.25;;;;;;;;5070453;28;45728;-81
2023/08/21 06:26:04;;;;;;;;;1.50;1.50;;;;;;;;5068256;28;45448;-81
2023/08/21 06:28:29;;;;;;;;;5.00;2.25;;;;;;;;5051029;28;46179;-80
2023/08/21 06:30:58;;;;;;;;;3.25;2.00;;;;;;;;5049783;28;48281;-81
2023/08/21 06:33:23;;;;;;;;;1.40;1.00;;;;;;;;5043933;27;45429;-78
2023/08/21 06:35:48;;;;;;;;;2.00;0.50;;;;;;;;5047577;28;45344;-81
2023/08/21 06:38:14;;;;;;;;;2.50;1.25;;;;;;;;5063362;27;45415;-82
2023/08/21 06:40:39;;;;;;;;;2.00;1.00;;;;;;;;5066559;28;45437;-81
2023/08/21 06:43:05;;;;;;;;;1.00;1.00;;;;;;;;5044806;27;45701;-80
2023/08/21 06:45:32;;;;;;;;;4.25;2.25;;;;;;;;5067132;28;45899;-80
2023/08/21 06:47:57;;;;;;;;;1.00;1.00;;;;;;;;5056885;28;45480;-81
2023/08/21 06:50:23;;;;;;;;;0.00;0.00;;;;;;;;5046473;28;48193;-80
2023/08/21 06:52:48;;;;;;;;;3.50;1.75;;;;;;;;5072773;27;45426;-80
2023/08/21 06:55:13;;;;;;;;;3.00;0.00;;;;;;;;5075543;27;45467;-81
2023/08/21 06:57:38;;;;;;;;;0.00;0.00;;;;;;;;5042834;27;45773;-81
2023/08/21 07:00:05;;;;;;;;;1.00;1.00;;;;;;;;5069236;28;45667;-80
2023/08/21 07:02:31;;;;;;;;;1.00;1.00;;;;;;;;5057155;28;45459;-81
2023/08/21 07:04:56;;;;;;;;;3.00;0.00;;;;;;;;5070235;28;45704;-82
2023/08/21 07:07:22;;;;;;;;;0.75;0.00;;;;;;;;5069994;27;45435;-80
2023/08/21 07:09:47;;;;;;;;;10.75;6.25;;;;;;;;5070693;27;46568;-82
2023/08/21 07:12:12;;;;;;;;;0.00;0.00;;;;;;;;5072800;27;45447;-80
2023/08/21 07:14:37;;;;;;;;;0.00;0.00;;;;;;;;5072102;28;45418;-81
2023/08/21 07:17:03;;;;;;;;;1.00;1.00;;;;;;;;5069717;28;45437;-82
2023/08/21 07:19:28;;;;;;;;;4.00;1.75;;;;;;;;5068931;27;45536;-82
2023/08/21 07:21:53;;;;;;;;;1.50;1.25;;;;;;;;5068249;28;45444;-80
2023/08/21 07:24:19;;;;;;;;;4.00;2.50;;;;;;;;5067319;28;45654;-82
2023/08/21 07:26:44;;;;;;;;;2.75;1.00;;;;;;;;5053776;28;45824;-82
2023/08/21 07:29:10;;;;;;;;;1.25;1.00;;;;;;;;5039718;28;47311;-81
2023/08/21 07:31:35;;;;;;;;;1.00;0.00;;;;;;;;5046088;27;45477;-83
2023/08/21 07:34:00;;;;;;;;;0.00;0.00;;;;;;;;5070363;28;45513;-80
2023/08/21 07:36:25;;;;;;;;;1.00;1.00;;;;;;;;5042163;27;45551;-82
2023/08/21 07:38:52;;;;;;;;;1.00;0.00;;;;;;;;5060736;28;45641;-81
2023/08/21 07:41:17;;;;;;;;;0.25;0.25;;;;;;;;5060132;28;45420;-81
2023/08/21 07:43:43;;;;;;;;;0.50;0.00;;;;;;;;5067347;27;45406;-79
2023/08/21 07:46:12;;;;;;;;;2.00;0.00;;;;;;;;5061884;27;45325;-81
2023/08/21 07:48:37;;;;;;;;;1.75;1.00;;;;;;;;5042126;28;47383;-81
2023/08/21 07:51:03;;;;;;;;;0.75;0.00;;;;;;;;5062020;28;45397;-82
2023/08/21 07:53:29;;;;;;;;;1.75;0.00;;;;;;;;5066323;28;45496;-81
2023/08/21 07:55:55;;;;;;;;;1.50;0.25;;;;;;;;5066148;28;45346;-81
2023/08/21 07:58:20;;;;;;;;;0.00;0.00;;;;;;;;5041441;28;47078;-81
2023/08/21 08:00:45;;;;;;;;;1.75;1.00;;;;;;;;5050072;28;45487;-82
2023/08/21 08:03:11;;;;;;;;;0.00;0.00;;;;;;;;5037960;28;45936;-80
2023/08/21 08:05:37;;;;;;;;;0.00;0.00;;;;;;;;5082925;27;46052;-81
2023/08/21 08:08:02;;;;;;;;;2.00;0.00;;;;;;;;5046299;28;46105;-82
2023/08/21 08:10:28;;;;;;;;;0.00;0.00;;;;;;;;5064921;27;45348;-82
2023/08/21 08:12:54;;;;;;;;;0.00;0.00;;;;;;;;5066121;28;44749;-81
2023/08/21 08:15:19;;;;;;;;;1.00;0.00;;;;;;;;5055870;28;45708;-81
2023/08/21 08:17:51;;;;;;;;;0.00;0.00;;;;;;;;5056424;28;46471;-83
2023/08/21 08:20:17;;;;;;;;;0.00;0.00;;;;;;;;5060138;28;45414;-82
2023/08/21 08:22:42;;;;;;;;;2.00;0.00;;;;;;;;5070455;28;45656;-81
2023/08/21 08:25:07;;;;;;;;;0.00;0.00;;;;;;;;5063591;28;45821;-82
2023/08/21 08:27:32;;;;;;;;;0.00;0.00;;;;;;;;5063661;28;45773;-80
2023/08/21 08:29:58;;;;;;;;;0.00;0.00;;;;;;;;5062573;28;45411;-81
2023/08/21 08:32:23;;;;;;;;;1.25;0.00;;;;;;;;5047724;28;46896;-81
2023/08/21 08:34:49;;;;;;;;;0.00;0.00;;;;;;;;5066606;28;45572;-80
2023/08/21 08:37:14;;;;;;;;;1.00;0.00;;;;;;;;5075090;28;45383;-81
2023/08/21 08:39:39;;;;;;;;;0.00;0.00;;;;;;;;5070974;28;45482;-78
2023/08/21 08:42:05;;;;;;;;;0.50;0.50;;;;;;;;5064691;28;45357;-80
2023/08/21 08:44:33;;;;;;;;;1.00;0.00;;;;;;;;5065861;28;45346;-80
2023/08/21 08:46:59;;;;;;;;;3.00;0.00;;;;;;;;5055583;28;45385;-82
2023/08/21 08:49:25;;;;;;;;;0.00;0.00;;;;;;;;5059605;28;45401;-83
2023/08/21 08:51:51;;;;;;;;;0.00;0.00;;;;;;;;5073358;28;45518;-81
2023/08/21 08:54:16;;;;;;;;;0.00;0.00;;;;;;;;5052042;28;45355;-80
2023/08/21 08:56:42;;;;;;;;;0.50;0.00;;;;;;;;5078025;28;45374;-80
2023/08/21 08:59:07;;;;;;;;;2.50;1.00;;;;;;;;5046210;28;45762;-81
2023/08/21 09:01:33;;;;;;;;;1.00;1.00;;;;;;;;5041790;28;45745;-80
2023/08/21 09:03:58;;;;;;;;;0.50;0.00;;;;;;;;5060345;28;45763;-82
2023/08/21 09:06:23;;;;;;;;;0.75;0.00;;;;;;;;5039455;28;47336;-82
2023/08/21 09:08:55;;;;;;;;;0.25;0.00;;;;;;;;5066646;28;45894;-81
2023/08/21 09:11:21;;;;;;;;;0.25;0.25;;;;;;;;5054353;28;45678;-80
2023/08/21 09:13:48;;;;;;;;;0.25;0.00;;;;;;;;5070519;28;46021;-82
2023/08/21 09:16:16;;;;;;;;;1.00;1.00;;;;;;;;5066920;28;45839;-81
2023/08/21 09:18:50;;;;;;;;;0.50;0.50;;;;;;;;5064208;28;44745;-81
2023/08/21 09:21:18;;;;;;;;;2.00;0.00;;;;;;;;5061300;28;45458;-81
2023/08/21 09:23:45;;;;;;;;;0.00;0.00;;;;;;;;5061734;28;45416;-80
2023/08/21 09:26:11;;;;;;;;;2.00;0.00;;;;;;;;5023331;28;46369;-81
2023/08/21 09:28:37;;;;;;;;;0.00;0.00;;;;;;;;5054824;28;45786;-80
2023/08/21 09:31:03;;;;;;;;;0.50;0.50;;;;;;;;5062853;28;45498;-80
2023/08/21 09:33:28;;;;;;;;;0.00;0.00;;;;;;;;5050144;28;45503;-80
2023/08/21 09:35:54;;;;;;;;;0.00;0.00;;;;;;;;5031254;28;47601;-81
2023/08/21 09:38:19;;;;;;;;;0.00;0.00;;;;;;;;5052967;28;45490;-80
2023/08/21 09:40:54;;;;;;;;;0.00;0.00;;;;;;;;5068053;28;45689;-81
2023/08/21 09:43:20;;;;;;;;;0.75;0.00;;;;;;;;5040360;28;46066;-81
2023/08/21 09:45:50;;;;;;;;;0.75;0.75;;;;;;;;5059130;28;46342;-79
2023/08/21 09:48:16;;;;;;;;;0.00;0.00;;;;;;;;5048515;28;45426;-81
2023/08/21 09:50:41;;;;;;;;;0.00;0.00;;;;;;;;5056624;28;45399;-82
2023/08/21 09:53:08;;;;;;;;;0.75;0.00;;;;;;;;5076577;28;45576;-80
2023/08/21 09:55:33;;;;;;;;;0.75;0.75;;;;;;;;5062414;28;45742;-81
2023/08/21 09:57:59;;;;;;;;;0.75;0.00;;;;;;;;5065235;28;45797;-83
2023/08/21 10:00:34;;;;;;;;;0.00;0.00;;;;;;;;5063873;28;45390;-82
2023/08/21 10:03:04;;;;;;;;;2.50;1.50;;;;;;;;5041667;28;45955;-82
2023/08/21 10:05:33;;;;;;;;;4.25;1.75;;;;;;;;5066154;28;45390;-80
2023/08/21 10:08:00;;;;;;;;;0.50;0.25;;;;;;;;5045250;28;45754;-81
2023/08/21 10:10:26;;;;;;;;;0.25;0.25;;;;;;;;5056804;28;45449;-84
2023/08/21 10:12:51;;;;;;;;;0.50;0.50;;;;;;;;5067715;28;46187;-80
2023/08/21 10:15:16;;;;;;;;;1.00;1.00;;;;;;;;5048271;28;48130;-81
2023/08/21 10:17:43;;;;;;;;;2.00;1.00;;;;;;;;5070634;28;45464;-82
2023/08/21 10:20:11;;;;;;;;;0.75;0.00;;;;;;;;5046299;28;45739;-81
2023/08/21 10:22:44;;;;;;;;;1.50;1.00;;;;;;;;5048623;28;45738;-80
2023/08/21 10:25:22;;;;;;;;;5.00;5.00;;;;;;;;5061366;28;46490;-80
2023/08/21 10:27:52;;;;;;;;;14.00;10.00;;;;;;;;5065465;28;45580;-80
2023/08/21 10:30:22;;;;;;;;;4.00;3.00;;;;;;;;5048878;28;45455;-78
2023/08/21 10:32:48;;;;;;;;;3.00;2.00;;;;;;;;5060001;28;45419;-80
2023/08/21 10:35:14;;;;;;;;;3.75;2.75;;;;;;;;5054694;28;47113;-81
2023/08/21 10:37:59;;;;;;;;;2.00;2.00;;;;;;;;5056458;28;45819;-81
2023/08/21 10:40:24;;;;;;;;;2.25;1.75;;;;;;;;5032029;28;45902;-82
2023/08/21 10:42:49;;;;;;;;;0.00;0.00;;;;;;;;5063342;28;45870;-80
2023/08/21 10:45:15;;;;;;;;;0.50;0.25;;;;;;;;5040909;28;46110;-81
2023/08/21 10:47:40;;;;;;;;;0.75;0.75;;;;;;;;5060534;28;45483;-81
2023/08/21 10:50:07;;;;;;;;;0.00;0.00;;;;;;;;5077843;28;45861;-81
2023/08/21 10:52:35;;;;;;;;;0.75;0.25;;;;;;;;5058126;28;46206;-81
2023/08/21 10:55:01;;;;;;;;;2.00;0.50;;;;;;;;5042607;28;46109;-83
2023/08/21 10:57:27;;;;;;;;;1.50;1.00;;;;;;;;5046844;28;45819;-82
2023/08/21 10:59:57;;;;;;;;;3.00;1.00;;;;;;;;5067514;28;45397;-81
2023/08/21 11:02:23;;;;;;;;;0.00;0.00;;;;;;;;5039030;28;46362;-82
2023/08/21 11:04:49;;;;;;;;;1.00;1.00;;;;;;;;5064442;28;45463;-81
2023/08/21 11:07:14;;;;;;;;;2.00;1.75;;;;;;;;5066696;28;45308;-81
2023/08/21 11:09:40;;;;;;;;;1.25;0.25;;;;;;;;5042926;28;45976;-80
2023/08/21 11:12:06;;;;;;;;;0.00;0.00;;;;;;;;5065912;28;45355;-81
2023/08/21 11:14:31;;;;;;;;;1.00;1.00;;;;;;;;5065719;28;46284;-81
2023/08/21 11:16:58;;;;;;;;;1.00;1.00;;;;;;;;5066057;28;45835;-82
2023/08/21 11:19:24;;;;;;;;;1.00;0.00;;;;;;;;5066986;28;45605;-81
2023/08/21 11:21:52;;;;;;;;;3.75;0.00;;;;;;;;5065666;28;45485;-81
2023/08/21 11:24:17;;;;;;;;;1.00;1.00;;;;;;;;5066522;28;46310;-83
2023/08/21 11:26:43;;;;;;;;;0.25;0.25;;;;;;;;5066533;27;45519;-82
2023/08/21 11:29:08;;;;;;;;;1.00;1.00;;;;;;;;5047810;28;45540;-82
2023/08/21 11:31:33;;;;;;;;;0.00;0.00;;;;;;;;5062212;28;45552;-82
2023/08/21 11:33:58;;;;;;;;;0.00;0.00;;;;;;;;5043947;28;46093;-83
2023/08/21 11:36:23;;;;;;;;;0.75;0.75;;;;;;;;5064696;28;45378;-82
2023/08/21 11:38:59;;;;;;;;;1.00;1.00;;;;;;;;5047078;28;45399;-82
2023/08/21 11:41:25;;;;;;;;;1.00;1.00;;;;;;;;5059615;28;45569;-81
2023/08/21 11:43:50;;;;;;;;;2.50;1.00;;;;;;;;5057734;28;45399;-81
2023/08/21 11:46:18;;;;;;;;;0.00;0.00;;;;;;;;5038087;28;45587;-81
2023/08/21 11:48:44;;;;;;;;;0.25;0.25;;;;;;;;5056178;28;45447;-80
2023/08/21 11:51:10;;;;;;;;;0.00;0.00;;;;;;;;5060239;28;45904;-81
2023/08/21 11:53:36;;;;;;;;;0.75;0.75;;;;;;;;5064895;28;46522;-81
2023/08/21 11:56:02;;;;;;;;;1.00;1.00;;;;;;;;5055820;28;45378;-83
2023/08/21 11:58:30;;;;;;;;;2.25;1.50;;;;;;;;5056028;28;45351;-83
2023/08/21 12:01:04;;;;;;;;;2.00;2.00;;;;;;;;5070198;28;45508;-79
2023/08/21 12:03:31;;;;;;;;;1.00;1.00;;;;;;;;5055304;28;45805;-83
2023/08/21 12:05:56;;;;;;;;;0.00;0.00;;;;;;;;5062405;28;45418;-80
2023/08/21 12:08:21;;;;;;;;;1.00;1.00;;;;;;;;5063665;28;45344;-82
2023/08/21 12:10:52;;;;;;;;;0.00;0.00;;;;;;;;5056939;28;45544;-82
2023/08/21 12:13:17;;;;;;;;;0.75;0.00;;;;;;;;5057877;28;45510;-82
2023/08/21 12:15:42;;;;;;;;;0.25;0.25;;;;;;;;5067494;28;45358;-81
2023/08/21 12:18:07;;;;;;;;;1.00;1.00;;;;;;;;5053930;28;44660;-81
2023/08/21 12:20:33;;;;;;;;;1.50;1.50;;;;;;;;5038774;28;46497;-81
2023/08/21 12:22:59;;;;;;;;;1.00;1.00;;;;;;;;5057614;28;45428;-82
2023/08/21 12:25:24;;;;;;;;;9.50;8.50;;;;;;;;5038015;28;45348;-83
2023/08/21 12:27:49;;;;;;;;;1.00;1.00;;;;;;;;5055738;28;45371;-83
2023/08/21 12:30:14;;;;;;;;;1.00;1.00;;;;;;;;5055966;28;45743;-82
2023/08/21 12:32:40;;;;;;;;;35.67;31.67;;;;;;;;5037174;28;46871;-80
2023/08/21 12:35:06;;;;;;;;;1.50;1.00;;;;;;;;5056781;28;45333;-83
2023/08/21 12:37:31;;;;;;;;;0.50;0.50;;;;;;;;5055632;28;45602;-82
2023/08/21 12:39:57;;;;;;;;;1.50;1.00;;;;;;;;5055652;28;45822;-81
2023/08/21 12:42:22;;;;;;;;;1.75;0.75;;;;;;;;5055198;28;45670;-81
2023/08/21 12:44:47;;;;;;;;;0.00;0.00;;;;;;;;5036199;28;45457;-84
2023/08/21 12:47:12;;;;;;;;;1.75;0.25;;;;;;;;5039169;28;45457;-82
2023/08/21 12:49:37;;;;;;;;;2.75;0.50;;;;;;;;5036324;28;46305;-81
2023/08/21 12:52:05;;;;;;;;;1.00;1.00;;;;;;;;5066088;28;45459;-80
2023/08/21 12:54:30;;;;;;;;;2.00;0.50;;;;;;;;5074688;28;45488;-81
2023/08/21 12:56:56;;;;;;;;;2.00;0.00;;;;;;;;5075391;28;45558;-81
2023/08/21 12:59:22;;;;;;;;;0.75;0.75;;;;;;;;5074432;28;45681;-81
2023/08/21 13:01:47;;;;;;;;;1.25;1.25;;;;;;;;5045547;28;46962;-81
2023/08/21 13:04:12;;;;;;;;;0.50;0.50;;;;;;;;5068399;28;45701;-81
2023/08/21 13:06:37;;;;;;;;;0.25;0.25;;;;;;;;5063354;28;45358;-81
2023/08/21 13:09:03;;;;;;;;;0.00;0.00;;;;;;;;5072289;28;45478;-79
2023/08/21 13:11:29;;;;;;;;;2.00;2.00;;;;;;;;5056202;28;47156;-82
2023/08/21 13:13:54;;;;;;;;;1.75;1.75;;;;;;;;5074403;28;45390;-81
2023/08/21 13:16:20;;;;;;;;;0.75;0.75;;;;;;;;5080831;28;45284;-88
2023/08/21 13:18:46;;;;;;;;;0.25;0.25;;;;;;;;5051835;28;45876;-90
2023/08/21 13:21:11;;;;;;;;;0.00;0.00;;;;;;;;5066274;28;46647;-89
2023/08/21 13:23:36;;;;;;;;;0.75;0.75;;;;;;;;5065638;28;45391;-91
2023/08/21 13:26:02;;;;;;;;;1.00;1.00;;;;;;;;5079418;27;45607;-85
2023/08/21 13:28:27;;;;;;;;;0.75;0.00;;;;;;;;5066167;28;45654;-87
2023/08/21 13:30:53;;;;;;;;;1.00;1.00;;;;;;;;5086400;28;46264;-88
2023/08/21 13:33:18;;;;;;;;;0.75;0.75;;;;;;;;5065716;28;45442;-89
2023/08/21 13:35:44;;;;;;;;;0.00;0.00;;;;;;;;5047701;28;45297;-90
2023/08/21 13:38:10;;;;;;;;;0.50;0.50;;;;;;;;5040063;28;45804;-88
2023/08/21 13:40:35;;;;;;;;;1.00;1.00;;;;;;;;5046845;28;45521;-89
2023/08/21 13:43:00;;;;;;;;;0.00;0.00;;;;;;;;5059618;27;46401;-90
2023/08/21 13:45:27;;;;;;;;;0.00;0.00;;;;;;;;5066989;28;45504;-91
2023/08/21 13:47:52;;;;;;;;;0.00;0.00;;;;;;;;5070764;28;44817;-87
2023/08/21 13:50:18;;;;;;;;;0.75;0.75;;;;;;;;5069881;28;47012;-89
2023/08/21 13:52:44;;;;;;;;;1.00;1.00;;;;;;;;5060565;28;45390;-91
2023/08/21 13:55:11;;;;;;;;;1.25;0.50;;;;;;;;5059182;28;45349;-89
2023/08/21 13:57:38;;;;;;;;;0.00;0.00;;;;;;;;5064011;28;45825;-89
2023/08/21 14:00:07;;;;;;;;;1.75;1.75;;;;;;;;5051977;28;47386;-90
2023/08/21 14:02:34;;;;;;;;;0.00;0.00;;;;;;;;5052734;28;45297;-89
2023/08/21 14:04:59;;;;;;;;;2.00;1.00;;;;;;;;5050781;28;45246;-92
2023/08/21 14:07:25;;;;;;;;;1.00;1.00;;;;;;;;5067271;27;47090;-92
2023/08/21 14:09:50;;;;;;;;;1.00;1.00;;;;;;;;5059046;28;47844;-91
2023/08/21 14:12:15;;;;;;;;;0.50;0.50;;;;;;;;5062935;28;45334;-91
2023/08/21 14:14:40;;;;;;;;;0.00;0.00;;;;;;;;5058862;27;45625;-90
2023/08/21 14:17:06;;;;;;;;;0.00;0.00;;;;;;;;5050600;28;45458;-90
2023/08/21 14:19:31;;;;;;;;;3.00;2.00;;;;;;;;5065193;28;45469;-90
2023/08/21 14:22:00;;;;;;;;;1.00;1.00;;;;;;;;5031599;28;45399;-89
2023/08/21 14:24:26;;;;;;;;;2.00;0.75;;;;;;;;5053302;28;45554;-89
2023/08/21 14:26:51;;;;;;;;;1.00;1.00;;;;;;;;5048480;28;45612;-89
2023/08/21 14:29:17;;;;;;;;;1.00;1.00;;;;;;;;5030945;28;47236;-89
2023/08/21 14:31:42;;;;;;;;;0.00;0.00;;;;;;;;5061230;28;45307;-90
2023/08/21 14:34:07;;;;;;;;;0.50;0.50;;;;;;;;5049852;28;45333;-91
2023/08/21 14:36:33;;;;;;;;;0.00;0.00;;;;;;;;5047329;28;45799;-91
2023/08/21 14:38:59;;;;;;;;;2.25;1.25;;;;;;;;5054197;28;45537;-91